HYS weather

Hays Regional Airport
Hays, Kansas, United States

Public forecast

Using degrees Fahrenheit for public forecast. Weather courtesy of forecast.io.

Current aviation weather report (METAR) for Hays Regional Airport

Retrieved 2019/11/11 18:56 UTC (43 minutes ago):

KHYS 111856Z AUTO 35020G28KT 10SM BKN032 M06/M13 A3062 RMK AO2 PK WND 36030/1823 SNE27 SLP396 P0000 T10561133 FZRANO

Aviation forecast (TAF) for Hays Regional Airport

Retrieved 2019/11/11 18:22 UTC (1 hour ago):

TAF KHYS 111720Z 1118/1218 35020G29KT P6SM -SN SCT015 OVC024 TEMPO 1118/1119 2SM -SN BKN015 FM111900 35017G28KT P6SM SCT035 FM120000 36008KT P6SM SKC